createdAt,value
2023-03-03T00:00:44.691Z,1.26
2023-03-03T00:01:44.645Z,1.20
2023-03-03T00:02:44.715Z,1.22
2023-03-03T00:03:44.720Z,1.20
2023-03-03T00:04:44.613Z,1.22
2023-03-03T00:05:44.623Z,1.24
2023-03-03T00:06:44.593Z,1.19
2023-03-03T00:07:44.573Z,1.20
2023-03-03T00:08:44.575Z,1.22
2023-03-03T00:09:44.640Z,1.13
2023-03-03T00:10:44.552Z,1.13
2023-03-03T00:11:44.540Z,1.13
2023-03-03T00:12:44.549Z,1.10
2023-03-03T00:13:44.532Z,1.10
2023-03-03T00:14:44.562Z,1.12
2023-03-03T00:15:44.560Z,1.12
2023-03-03T00:16:44.502Z,1.04
2023-03-03T00:17:44.469Z,1.12
2023-03-03T00:18:44.456Z,1.13
2023-03-03T00:19:44.471Z,1.08
2023-03-03T00:20:44.447Z,1.05
2023-03-03T00:21:44.535Z,1.17
2023-03-03T00:22:44.412Z,1.13
2023-03-03T00:23:44.407Z,1.14
2023-03-03T00:24:44.392Z,1.23
2023-03-03T00:25:44.388Z,1.14
2023-03-03T00:26:44.390Z,1.26
2023-03-03T00:27:44.394Z,1.22
2023-03-03T00:28:44.372Z,1.22
2023-03-03T00:29:44.337Z,1.20
2023-03-03T00:30:44.326Z,1.22
2023-03-03T00:31:44.314Z,1.28
2023-03-03T00:32:44.319Z,1.23
2023-03-03T00:33:44.420Z,1.23
2023-03-03T00:34:44.288Z,1.14
2023-03-03T00:35:44.277Z,1.24
2023-03-03T00:36:44.273Z,1.26
2023-03-03T00:37:44.287Z,1.22
2023-03-03T00:38:44.272Z,1.17
2023-03-03T00:39:44.273Z,1.22
2023-03-03T00:40:44.215Z,1.20
2023-03-03T00:41:44.206Z,1.20
2023-03-03T00:42:44.198Z,1.23
2023-03-03T00:43:44.187Z,1.22
2023-03-03T00:44:44.188Z,1.22
2023-03-03T00:45:44.199Z,1.22
2023-03-03T00:46:44.156Z,1.24
2023-03-03T00:47:44.139Z,1.26
2023-03-03T00:48:44.167Z,1.23
2023-03-03T00:49:44.118Z,1.23
2023-03-03T00:50:44.150Z,1.30
2023-03-03T00:51:44.145Z,1.22
2023-03-03T00:52:44.088Z,1.23
2023-03-03T00:53:44.096Z,1.19
2023-03-03T00:54:44.061Z,1.20
2023-03-03T00:55:44.066Z,1.28
2023-03-03T00:56:44.081Z,1.20
2023-03-03T00:57:44.074Z,1.22
2023-03-03T00:58:44.075Z,1.23
2023-03-03T00:59:44.031Z,1.20
2023-03-03T01:00:44.026Z,1.16
2023-03-03T01:01:44.058Z,1.19
2023-03-03T01:02:44.029Z,1.06
2023-03-03T01:03:43.988Z,1.12
2023-03-03T01:04:43.949Z,1.10
2023-03-03T01:05:43.954Z,1.12
2023-03-03T01:06:43.928Z,1.08
2023-03-03T01:07:43.924Z,1.05
2023-03-03T01:08:43.918Z,1.05
2023-03-03T01:09:43.968Z,1.06
2023-03-03T01:10:43.889Z,1.05
2023-03-03T01:11:43.884Z,1.01
2023-03-03T01:12:43.874Z,1.05
2023-03-03T01:13:43.867Z,1.10
2023-03-03T01:14:43.840Z,1.02
2023-03-03T01:15:43.984Z,0.99
2023-03-03T01:16:43.837Z,1.13
2023-03-03T01:17:43.842Z,0.99
2023-03-03T01:18:43.800Z,0.99
2023-03-03T01:19:43.795Z,0.99
2023-03-03T01:20:43.826Z,0.99
2023-03-03T01:21:43.811Z,1.04
2023-03-03T01:22:43.761Z,0.91
2023-03-03T01:23:43.745Z,1.02
2023-03-03T01:24:43.740Z,0.95
2023-03-03T01:25:43.764Z,1.04
2023-03-03T01:26:43.712Z,1.01
2023-03-03T01:27:43.733Z,0.99
2023-03-03T01:28:43.689Z,0.92
2023-03-03T01:29:43.686Z,0.98
2023-03-03T01:30:43.662Z,0.99
2023-03-03T01:31:43.657Z,0.92
2023-03-03T01:32:43.645Z,1.01
2023-03-03T01:33:43.681Z,0.87
2023-03-03T01:34:43.623Z,0.95
2023-03-03T01:35:43.682Z,0.92
2023-03-03T01:36:43.602Z,0.96
2023-03-03T01:37:43.597Z,0.94
2023-03-03T01:38:43.580Z,0.92
2023-03-03T01:39:43.611Z,0.91
2023-03-03T01:40:43.649Z,0.99
2023-03-03T01:41:43.574Z,0.91
2023-03-03T01:42:43.535Z,1.02
2023-03-03T01:43:43.528Z,0.98
2023-03-03T01:44:43.512Z,0.94
2023-03-03T01:45:43.605Z,0.95
2023-03-03T01:46:43.515Z,0.88
2023-03-03T01:47:43.507Z,0.94
2023-03-03T01:48:43.473Z,0.99
2023-03-03T01:49:43.466Z,0.88
2023-03-03T01:50:43.453Z,0.91
2023-03-03T01:51:43.531Z,0.94
2023-03-03T01:52:43.436Z,0.98
2023-03-03T01:53:43.425Z,0.94
2023-03-03T01:54:43.400Z,0.94
2023-03-03T01:55:43.413Z,0.92
2023-03-03T01:56:43.437Z,0.92
2023-03-03T01:57:43.452Z,0.91
2023-03-03T01:58:43.389Z,0.88
2023-03-03T01:59:43.442Z,0.87
2023-03-03T02:00:43.355Z,0.83
2023-03-03T02:01:43.378Z,0.95
2023-03-03T02:02:43.337Z,0.86
2023-03-03T02:03:43.500Z,0.83
2023-03-03T02:04:43.329Z,0.86
2023-03-03T02:05:43.428Z,0.91
2023-03-03T02:06:43.396Z,0.80
2023-03-03T02:07:43.266Z,0.86
2023-03-03T02:08:43.288Z,0.86
2023-03-03T02:09:43.362Z,0.80
2023-03-03T02:10:43.261Z,0.76
2023-03-03T02:11:43.244Z,0.73
2023-03-03T02:12:43.220Z,0.80
2023-03-03T02:13:43.232Z,0.81
2023-03-03T02:14:43.214Z,0.77
2023-03-03T02:15:43.226Z,0.70
2023-03-03T02:16:43.264Z,0.77
2023-03-03T02:17:43.160Z,0.76
2023-03-03T02:18:43.205Z,0.70
2023-03-03T02:19:43.177Z,0.87
2023-03-03T02:20:43.220Z,0.76
2023-03-03T02:21:43.155Z,0.76
2023-03-03T02:22:43.101Z,0.81
2023-03-03T02:23:43.132Z,0.80
2023-03-03T02:24:43.092Z,0.81
2023-03-03T02:25:43.073Z,0.81
2023-03-03T02:26:43.097Z,0.81
2023-03-03T02:27:43.098Z,0.76
2023-03-03T02:28:43.045Z,0.74
2023-03-03T02:29:43.059Z,0.84
2023-03-03T02:30:43.027Z,0.83
2023-03-03T02:31:43.133Z,0.81
2023-03-03T02:32:43.006Z,0.80
2023-03-03T02:33:43.045Z,0.70
2023-03-03T02:34:42.982Z,0.80
2023-03-03T02:35:43.065Z,0.80
2023-03-03T02:36:42.967Z,0.83
2023-03-03T02:37:42.939Z,0.78
2023-03-03T02:38:42.944Z,0.76
2023-03-03T02:39:42.952Z,0.78
2023-03-03T02:40:42.914Z,0.77
2023-03-03T02:41:42.900Z,0.81
2023-03-03T02:42:42.890Z,0.73
2023-03-03T02:43:42.875Z,0.81
2023-03-03T02:44:42.872Z,0.80
2023-03-03T02:45:42.957Z,0.78
2023-03-03T02:46:42.851Z,0.76
2023-03-03T02:47:42.836Z,0.76
2023-03-03T02:48:42.827Z,0.78
2023-03-03T02:49:42.809Z,0.78
2023-03-03T02:50:42.799Z,0.78
2023-03-03T02:51:42.820Z,0.76
2023-03-03T02:52:42.790Z,0.76
2023-03-03T02:53:42.772Z,0.76
2023-03-03T02:54:42.753Z,0.80
2023-03-03T02:55:42.744Z,0.78
2023-03-03T02:56:42.756Z,0.69
2023-03-03T02:57:42.762Z,0.69
2023-03-03T02:58:42.723Z,0.69
2023-03-03T02:59:42.698Z,0.66
2023-03-03T03:00:42.796Z,0.74
2023-03-03T03:01:42.703Z,0.70
2023-03-03T03:02:42.669Z,0.65
2023-03-03T03:03:42.676Z,0.66
2023-03-03T03:04:42.842Z,0.65
2023-03-03T03:05:42.629Z,0.70
2023-03-03T03:06:42.623Z,0.60
2023-03-03T03:07:42.632Z,0.69
2023-03-03T03:08:42.600Z,0.69
2023-03-03T03:09:42.630Z,0.68
2023-03-03T03:10:42.575Z,0.66
2023-03-03T03:11:42.573Z,0.59
2023-03-03T03:12:42.560Z,0.60
2023-03-03T03:13:42.556Z,0.62
2023-03-03T03:14:42.542Z,0.62
2023-03-03T03:15:42.574Z,0.55
2023-03-03T03:16:42.624Z,0.59
2023-03-03T03:17:42.522Z,0.56
2023-03-03T03:18:42.494Z,0.49
2023-03-03T03:19:42.485Z,0.63
2023-03-03T03:20:42.466Z,0.66
2023-03-03T03:21:42.522Z,0.52
2023-03-03T03:22:42.438Z,0.52
2023-03-03T03:23:42.437Z,0.69
2023-03-03T03:24:42.431Z,0.63
2023-03-03T03:25:42.417Z,0.55
2023-03-03T03:26:42.410Z,0.55
2023-03-03T03:27:42.462Z,0.62
2023-03-03T03:28:42.438Z,0.47
2023-03-03T03:29:42.373Z,0.59
2023-03-03T03:30:42.386Z,0.49
2023-03-03T03:31:42.361Z,0.52
2023-03-03T03:32:42.338Z,0.44
2023-03-03T03:33:42.379Z,0.44
2023-03-03T03:34:42.327Z,0.47
2023-03-03T03:35:42.319Z,0.55
2023-03-03T03:36:42.288Z,0.47
2023-03-03T03:37:42.293Z,0.56
2023-03-03T03:38:42.280Z,0.49
2023-03-03T03:39:42.327Z,0.49
2023-03-03T03:40:42.263Z,0.44
2023-03-03T03:41:42.237Z,0.46
2023-03-03T03:42:42.231Z,0.41
2023-03-03T03:43:42.218Z,0.37
2023-03-03T03:44:42.228Z,0.43
2023-03-03T03:45:42.369Z,0.43
2023-03-03T03:46:42.187Z,0.31
2023-03-03T03:47:42.169Z,0.39
2023-03-03T03:48:42.195Z,0.36
2023-03-03T03:49:42.181Z,0.32
2023-03-03T03:50:42.139Z,0.44
2023-03-03T03:51:42.157Z,0.34
2023-03-03T03:52:42.137Z,0.36
2023-03-03T03:53:42.111Z,0.41
2023-03-03T03:54:42.101Z,0.32
2023-03-03T03:55:42.086Z,0.37
2023-03-03T03:56:42.083Z,0.37
2023-03-03T03:57:42.103Z,0.40
2023-03-03T03:58:42.126Z,0.43
2023-03-03T03:59:42.056Z,0.40
2023-03-03T04:00:42.059Z,0.40
2023-03-03T04:01:42.031Z,0.46
2023-03-03T04:02:42.174Z,0.37
2023-03-03T04:03:42.043Z,0.41
2023-03-03T04:04:41.990Z,0.40
2023-03-03T04:05:42.016Z,0.43
2023-03-03T04:06:41.978Z,0.41
2023-03-03T04:07:41.969Z,0.43
2023-03-03T04:08:41.950Z,0.40
2023-03-03T04:09:41.974Z,0.41
2023-03-03T04:10:41.934Z,0.34
2023-03-03T04:11:41.915Z,0.31
2023-03-03T04:12:41.909Z,0.40
2023-03-03T04:13:41.898Z,0.39
2023-03-03T04:14:41.898Z,0.36
2023-03-03T04:15:42.043Z,0.43
2023-03-03T04:16:41.872Z,0.32
2023-03-03T04:17:41.857Z,0.28
2023-03-03T04:18:41.841Z,0.46
2023-03-03T04:19:41.831Z,0.37
2023-03-03T04:20:41.831Z,0.36
2023-03-03T04:21:41.888Z,0.34
2023-03-03T04:22:41.802Z,0.32
2023-03-03T04:23:41.807Z,0.37
2023-03-03T04:24:41.813Z,0.36
2023-03-03T04:25:41.763Z,0.29
2023-03-03T04:26:41.761Z,0.40
2023-03-03T04:27:41.764Z,0.39
2023-03-03T04:28:41.776Z,0.40
2023-03-03T04:29:41.730Z,0.44
2023-03-03T04:30:41.861Z,0.37
2023-03-03T04:31:41.702Z,0.39
2023-03-03T04:32:41.704Z,0.40
2023-03-03T04:33:41.836Z,0.37
2023-03-03T04:34:41.676Z,0.40
2023-03-03T04:35:41.720Z,0.31
2023-03-03T04:36:41.653Z,0.32
2023-03-03T04:37:41.673Z,0.40
2023-03-03T04:38:41.653Z,0.37
2023-03-03T04:39:41.668Z,0.37
2023-03-03T04:40:41.717Z,0.36
2023-03-03T04:41:41.598Z,0.37
2023-03-03T04:42:41.578Z,0.34
2023-03-03T04:43:41.593Z,0.41
2023-03-03T04:44:41.564Z,0.29
2023-03-03T04:45:41.571Z,0.36
2023-03-03T04:46:41.540Z,0.26
2023-03-03T04:47:41.600Z,0.25
2023-03-03T04:48:41.526Z,0.31
2023-03-03T04:49:41.511Z,0.25
2023-03-03T04:50:41.493Z,0.23
2023-03-03T04:51:41.574Z,0.22
2023-03-03T04:52:41.471Z,0.29
2023-03-03T04:53:41.495Z,0.26
2023-03-03T04:54:41.450Z,0.23
2023-03-03T04:55:41.446Z,0.25
2023-03-03T04:56:41.429Z,0.15
2023-03-03T04:57:41.500Z,0.18
2023-03-03T04:58:41.404Z,0.19
2023-03-03T04:59:41.415Z,0.12
2023-03-03T05:00:41.392Z,0.19
2023-03-03T05:01:41.425Z,0.18
2023-03-03T05:02:41.365Z,0.16
2023-03-03T05:03:41.384Z,0.16
2023-03-03T05:04:41.377Z,0.10
2023-03-03T05:05:41.380Z,0.12
2023-03-03T05:06:41.324Z,0.12
2023-03-03T05:07:41.309Z,0.11
2023-03-03T05:08:41.289Z,0.11
2023-03-03T05:09:41.391Z,0.18
2023-03-03T05:10:41.314Z,0.05
2023-03-03T05:11:41.255Z,0.11
2023-03-03T05:12:41.247Z,0.16
2023-03-03T05:13:41.248Z,0.11
2023-03-03T05:14:41.222Z,0.18
2023-03-03T05:15:43.244Z,0.11
2023-03-03T05:16:41.204Z,0.15
2023-03-03T05:17:41.209Z,0.15
2023-03-03T05:18:41.185Z,0.05
2023-03-03T05:19:41.172Z,0.10
2023-03-03T05:20:41.178Z,0.07
2023-03-03T05:21:41.197Z,0.04
2023-03-03T05:22:41.131Z,0.07
2023-03-03T05:23:41.213Z,0.05
2023-03-03T05:24:41.119Z,0.04
2023-03-03T05:25:41.154Z,0.04
2023-03-03T05:26:41.094Z,0.00
2023-03-03T05:27:41.143Z,0.00
2023-03-03T05:28:41.082Z,0.10
2023-03-03T05:29:41.061Z,-0.02
2023-03-03T05:30:41.044Z,0.11
2023-03-03T05:31:41.453Z,0.11
2023-03-03T05:32:41.021Z,0.04
2023-03-03T05:33:41.041Z,0.12
2023-03-03T05:34:40.996Z,0.11
2023-03-03T05:35:41.077Z,0.07
2023-03-03T05:36:40.974Z,0.18
2023-03-03T05:37:41.069Z,0.16
2023-03-03T05:38:40.952Z,0.21
2023-03-03T05:39:41.025Z,0.22
2023-03-03T05:40:40.941Z,0.29
2023-03-03T05:41:40.969Z,0.28
2023-03-03T05:42:40.955Z,0.26
2023-03-03T05:43:40.903Z,0.23
2023-03-03T05:44:40.889Z,0.34
2023-03-03T05:45:40.935Z,0.40
2023-03-03T05:46:40.922Z,0.39
2023-03-03T05:47:40.971Z,0.44
2023-03-03T05:48:40.872Z,0.44
2023-03-03T05:49:40.865Z,0.41
2023-03-03T05:50:40.827Z,0.40
2023-03-03T05:51:40.879Z,0.47
2023-03-03T05:52:40.800Z,0.52
2023-03-03T05:53:40.791Z,0.55
2023-03-03T05:54:40.787Z,0.46
2023-03-03T05:55:40.769Z,0.47
2023-03-03T05:56:40.766Z,0.56
2023-03-03T05:57:40.815Z,0.50
2023-03-03T05:58:40.741Z,0.66
2023-03-03T05:59:40.741Z,0.63
2023-03-03T06:00:40.736Z,0.69
2023-03-03T06:01:40.744Z,0.74
2023-03-03T06:02:40.724Z,0.76
2023-03-03T06:03:40.758Z,0.76
2023-03-03T06:04:40.718Z,0.69
2023-03-03T06:05:40.660Z,0.76
2023-03-03T06:06:40.654Z,0.73
2023-03-03T06:07:40.641Z,0.83
2023-03-03T06:08:40.640Z,0.86
2023-03-03T06:09:40.657Z,0.87
2023-03-03T06:10:40.614Z,0.92
2023-03-03T06:11:40.595Z,0.95
2023-03-03T06:12:40.595Z,0.94
2023-03-03T06:13:40.616Z,0.91
2023-03-03T06:14:40.567Z,0.92
2023-03-03T06:15:40.709Z,1.04
2023-03-03T06:16:40.617Z,0.96
2023-03-03T06:17:40.536Z,1.10
2023-03-03T06:18:40.518Z,1.05
2023-03-03T06:19:40.514Z,1.13
2023-03-03T06:20:40.504Z,1.17
2023-03-03T06:21:40.545Z,1.23
2023-03-03T06:22:40.500Z,1.28
2023-03-03T06:23:40.481Z,1.23
2023-03-03T06:24:40.484Z,1.23
2023-03-03T06:25:40.447Z,1.38
2023-03-03T06:26:40.452Z,1.34
2023-03-03T06:27:40.461Z,1.38
2023-03-03T06:28:40.411Z,1.38
2023-03-03T06:29:40.534Z,1.49
2023-03-03T06:30:41.113Z,1.49
2023-03-03T06:31:42.152Z,1.56
2023-03-03T06:32:40.457Z,1.52
2023-03-03T06:33:51.288Z,1.62
2023-03-03T06:34:40.447Z,1.62
2023-03-03T06:35:40.468Z,1.63
2023-03-03T06:36:40.329Z,1.62
2023-03-03T06:37:40.443Z,1.80
2023-03-03T06:38:40.309Z,1.74
2023-03-03T06:39:40.395Z,1.88
2023-03-03T06:40:40.304Z,1.88
2023-03-03T06:41:40.284Z,1.95
2023-03-03T06:42:40.315Z,1.95
2023-03-03T06:43:40.283Z,1.95
2023-03-03T06:44:40.345Z,1.94
2023-03-03T06:45:40.413Z,1.99
2023-03-03T06:46:40.218Z,2.04
2023-03-03T06:47:40.204Z,2.08
2023-03-03T06:48:40.271Z,2.00
2023-03-03T06:49:40.186Z,2.10
2023-03-03T06:50:40.171Z,2.11
2023-03-03T06:51:40.247Z,2.18
2023-03-03T06:52:40.168Z,2.11
2023-03-03T06:53:40.135Z,2.25
2023-03-03T06:54:40.130Z,2.14
2023-03-03T06:55:40.179Z,2.25
2023-03-03T06:56:40.111Z,2.36
2023-03-03T06:57:40.131Z,2.35
2023-03-03T06:58:40.227Z,2.33
2023-03-03T06:59:40.128Z,2.31
2023-03-03T07:00:40.156Z,2.43
2023-03-03T07:01:40.810Z,2.47
2023-03-03T07:02:40.089Z,2.49
2023-03-03T07:03:41.621Z,2.53
2023-03-03T07:04:40.042Z,2.56
2023-03-03T07:05:40.039Z,2.64
2023-03-03T07:06:39.999Z,2.60
2023-03-03T07:07:39.996Z,2.61
2023-03-03T07:08:40.041Z,2.69
2023-03-03T07:09:40.040Z,2.69
2023-03-03T07:10:39.969Z,2.74
2023-03-03T07:11:39.944Z,2.79
2023-03-03T07:12:39.947Z,2.82
2023-03-03T07:13:39.928Z,2.79
2023-03-03T07:14:39.912Z,2.83
2023-03-03T07:15:39.988Z,2.97
2023-03-03T07:16:39.937Z,2.86
2023-03-03T07:17:39.912Z,2.85
2023-03-03T07:18:39.921Z,2.89
2023-03-03T07:19:39.866Z,2.97
2023-03-03T07:20:39.860Z,2.98
2023-03-03T07:21:39.872Z,3.03
2023-03-03T07:22:39.857Z,3.08
2023-03-03T07:23:39.818Z,3.07
2023-03-03T07:24:39.837Z,3.18
2023-03-03T07:25:39.793Z,3.14
2023-03-03T07:26:39.807Z,3.18
2023-03-03T07:27:39.818Z,3.19
2023-03-03T07:28:39.763Z,3.34
2023-03-03T07:29:39.756Z,3.32
2023-03-03T07:30:39.742Z,3.44
2023-03-03T07:31:39.798Z,3.37
2023-03-03T07:32:39.742Z,3.47
2023-03-03T07:33:39.798Z,3.40
2023-03-03T07:34:39.705Z,3.47
2023-03-03T07:35:39.771Z,3.44
2023-03-03T07:36:39.711Z,3.51
2023-03-03T07:37:39.673Z,3.56
2023-03-03T07:38:39.657Z,3.62
2023-03-03T07:39:40.688Z,3.65
2023-03-03T07:40:39.674Z,3.60
2023-03-03T07:41:39.619Z,3.68
2023-03-03T07:42:39.635Z,3.69
2023-03-03T07:43:39.604Z,3.68
2023-03-03T07:44:39.586Z,3.83
2023-03-03T07:45:39.720Z,3.88
2023-03-03T07:46:39.569Z,3.86
2023-03-03T07:47:39.565Z,3.92
2023-03-03T07:48:39.546Z,4.04
2023-03-03T07:49:39.555Z,4.04
2023-03-03T07:50:39.527Z,4.02
2023-03-03T07:51:39.640Z,4.02
2023-03-03T07:52:39.590Z,4.13
2023-03-03T07:53:39.611Z,4.19
2023-03-03T07:54:40.193Z,4.22
2023-03-03T07:55:39.478Z,4.28
2023-03-03T07:56:39.459Z,4.37
2023-03-03T07:57:39.586Z,4.37
2023-03-03T07:58:39.471Z,4.30
2023-03-03T07:59:39.428Z,4.38
2023-03-03T08:00:39.510Z,4.44
2023-03-03T08:01:40.448Z,4.42
2023-03-03T08:02:39.390Z,4.58
2023-03-03T08:03:39.410Z,4.67
2023-03-03T08:04:39.592Z,4.66
2023-03-03T08:05:39.389Z,4.68
2023-03-03T08:06:39.398Z,4.77
2023-03-03T08:07:39.348Z,4.77
2023-03-03T08:08:39.324Z,4.84
2023-03-03T08:09:39.359Z,4.93
2023-03-03T08:10:40.155Z,4.94
2023-03-03T08:11:39.322Z,5.00
2023-03-03T08:12:39.290Z,4.96
2023-03-03T08:13:39.275Z,5.02
2023-03-03T08:14:39.251Z,5.10
2023-03-03T08:15:39.298Z,5.20
2023-03-03T08:16:39.320Z,5.23
2023-03-03T08:17:40.657Z,5.32
2023-03-03T08:18:39.308Z,5.41
2023-03-03T08:19:39.199Z,5.50
2023-03-03T08:20:39.177Z,5.48
2023-03-03T08:21:39.304Z,5.64
2023-03-03T08:22:39.164Z,5.66
2023-03-03T08:23:39.216Z,5.65
2023-03-03T08:24:39.135Z,5.69
2023-03-03T08:25:39.138Z,5.72
2023-03-03T08:26:39.109Z,5.80
2023-03-03T08:27:40.149Z,5.87
2023-03-03T08:28:39.077Z,5.87
2023-03-03T08:29:39.101Z,5.93
2023-03-03T08:30:39.099Z,6.01
2023-03-03T08:31:41.951Z,6.09
2023-03-03T08:32:39.215Z,6.17
2023-03-03T08:33:39.065Z,6.16
2023-03-03T08:34:39.676Z,6.17
2023-03-03T08:35:39.141Z,6.22
2023-03-03T08:36:38.988Z,6.39
2023-03-03T08:37:39.017Z,6.42
2023-03-03T08:38:38.966Z,6.42
2023-03-03T08:39:39.248Z,6.44
2023-03-03T08:40:38.975Z,6.57
2023-03-03T08:41:39.084Z,6.66
2023-03-03T08:42:38.926Z,6.69
2023-03-03T08:43:39.051Z,6.79
2023-03-03T08:44:38.899Z,6.88
2023-03-03T08:45:38.995Z,6.96
2023-03-03T08:46:38.891Z,7.11
2023-03-03T08:47:38.874Z,7.23
2023-03-03T08:48:38.856Z,7.33
2023-03-03T08:49:38.842Z,7.39
2023-03-03T08:50:38.835Z,7.40
2023-03-03T08:51:38.907Z,7.67
2023-03-03T08:52:39.679Z,7.69
2023-03-03T08:53:38.844Z,7.82
2023-03-03T08:54:38.788Z,7.87
2023-03-03T08:55:39.680Z,7.94
2023-03-03T08:56:38.773Z,7.95
2023-03-03T08:57:38.811Z,8.13
2023-03-03T08:58:38.754Z,8.18
2023-03-03T08:59:38.750Z,8.33
2023-03-03T09:00:38.724Z,8.45
2023-03-03T09:01:38.935Z,8.51
2023-03-03T09:02:38.741Z,8.66
2023-03-03T09:03:39.807Z,8.71
2023-03-03T09:04:38.774Z,8.73
2023-03-03T09:05:38.687Z,8.82
2023-03-03T09:06:38.736Z,8.85
2023-03-03T09:07:38.659Z,9.06
2023-03-03T09:08:38.736Z,9.04
2023-03-03T09:09:38.669Z,9.26
2023-03-03T09:10:38.605Z,9.28
2023-03-03T09:11:38.643Z,9.46
2023-03-03T09:12:38.605Z,9.46
2023-03-03T09:13:38.708Z,9.62
2023-03-03T09:14:38.567Z,9.65
2023-03-03T09:15:38.730Z,9.56
2023-03-03T09:16:38.620Z,9.66
2023-03-03T09:17:38.525Z,9.74
2023-03-03T09:18:38.527Z,9.80
2023-03-03T09:19:38.510Z,9.84
2023-03-03T09:20:38.500Z,9.86
2023-03-03T09:21:39.731Z,9.84
2023-03-03T09:22:38.514Z,9.94
2023-03-03T09:23:38.458Z,9.97
2023-03-03T09:24:38.464Z,10.01
2023-03-03T09:25:40.229Z,9.95
2023-03-03T09:26:38.430Z,10.07
2023-03-03T09:27:38.479Z,10.16
2023-03-03T09:28:38.412Z,10.13
2023-03-03T09:29:38.425Z,10.28
2023-03-03T09:30:38.394Z,10.28
2023-03-03T09:31:39.271Z,10.30
2023-03-03T09:32:38.467Z,10.33
2023-03-03T09:33:38.382Z,10.37
2023-03-03T09:34:38.365Z,10.33
2023-03-03T09:35:38.401Z,10.40
2023-03-03T09:36:38.313Z,10.40
2023-03-03T09:37:38.305Z,10.48
2023-03-03T09:38:38.295Z,10.42
2023-03-03T09:39:38.331Z,10.49
2023-03-03T09:40:38.272Z,10.44
2023-03-03T09:41:38.283Z,10.42
2023-03-03T09:42:38.247Z,10.44
2023-03-03T09:43:38.303Z,10.49
2023-03-03T09:44:38.226Z,10.46
2023-03-03T09:45:38.241Z,10.51
2023-03-03T09:46:38.383Z,10.46
2023-03-03T09:47:38.287Z,10.59
2023-03-03T09:48:38.188Z,10.57
2023-03-03T09:49:38.692Z,10.64
2023-03-03T09:50:38.789Z,10.68
2023-03-03T09:51:38.199Z,10.76
2023-03-03T09:52:38.154Z,10.89
2023-03-03T09:53:38.700Z,10.96
2023-03-03T09:54:38.131Z,11.08
2023-03-03T09:55:38.104Z,11.12
2023-03-03T09:56:38.095Z,11.29
2023-03-03T09:57:38.253Z,11.30
2023-03-03T09:58:38.083Z,11.44
2023-03-03T09:59:38.060Z,11.40
2023-03-03T10:00:38.691Z,11.44
2023-03-03T10:01:38.039Z,11.50
2023-03-03T10:02:38.712Z,11.57
2023-03-03T10:03:38.208Z,11.65
2023-03-03T10:04:38.006Z,11.66
2023-03-03T10:05:38.709Z,11.77
2023-03-03T10:06:37.984Z,11.90
2023-03-03T10:07:38.023Z,11.97
2023-03-03T10:08:37.971Z,12.06
2023-03-03T10:09:38.014Z,12.07
2023-03-03T10:10:37.970Z,12.09
2023-03-03T10:11:37.943Z,12.24
2023-03-03T10:12:37.910Z,12.29
2023-03-03T10:13:38.794Z,12.28
2023-03-03T10:14:37.889Z,12.28
2023-03-03T10:15:37.931Z,12.27
2023-03-03T10:16:37.916Z,12.17
2023-03-03T10:17:37.864Z,12.18
2023-03-03T10:18:37.865Z,12.29
2023-03-03T10:19:37.844Z,12.28
2023-03-03T10:20:48.980Z,12.31
2023-03-03T10:21:38.962Z,12.42
2023-03-03T10:22:37.801Z,12.42
2023-03-03T10:23:37.793Z,12.37
2023-03-03T10:24:37.781Z,12.25
2023-03-03T10:25:37.784Z,12.24
2023-03-03T10:26:44.815Z,12.32
2023-03-03T10:27:38.788Z,12.25
2023-03-03T10:28:37.776Z,12.28
2023-03-03T10:29:37.762Z,12.15
2023-03-03T10:30:42.629Z,12.21
2023-03-03T10:31:39.266Z,12.15
2023-03-03T10:32:38.082Z,12.02
2023-03-03T10:33:37.853Z,11.99
2023-03-03T10:34:38.251Z,11.88
2023-03-03T10:35:37.662Z,11.86
2023-03-03T10:36:37.646Z,11.75
2023-03-03T10:37:38.204Z,11.60
2023-03-03T10:38:37.626Z,11.65
2023-03-03T10:39:37.650Z,11.57
2023-03-03T10:40:38.210Z,11.45
2023-03-03T10:41:37.614Z,11.52
2023-03-03T10:42:37.568Z,11.43
2023-03-03T10:43:37.591Z,11.40
2023-03-03T10:44:37.577Z,11.26
2023-03-03T10:45:37.644Z,11.22
2023-03-03T10:46:37.534Z,11.19
2023-03-03T10:47:37.705Z,11.12
2023-03-03T10:48:39.630Z,11.08
2023-03-03T10:49:37.496Z,11.12
2023-03-03T10:50:37.479Z,11.05
2023-03-03T10:51:37.516Z,11.08
2023-03-03T10:52:37.467Z,11.11
2023-03-03T10:53:37.447Z,11.02
2023-03-03T10:54:37.437Z,11.15
2023-03-03T10:55:39.536Z,11.17
2023-03-03T10:56:51.833Z,11.27
2023-03-03T10:57:38.469Z,11.35
2023-03-03T10:58:37.464Z,11.44
2023-03-03T10:59:37.434Z,11.57
2023-03-03T11:00:37.366Z,11.68
2023-03-03T11:01:37.472Z,11.78
2023-03-03T11:02:37.348Z,11.88
2023-03-03T11:03:37.366Z,11.97
2023-03-03T11:04:37.403Z,12.09
2023-03-03T11:05:38.365Z,12.00
2023-03-03T11:06:37.301Z,12.06
2023-03-03T11:07:37.293Z,12.02
2023-03-03T11:08:37.317Z,12.07
2023-03-03T11:09:37.417Z,11.99
2023-03-03T11:10:38.164Z,11.91
2023-03-03T11:11:37.296Z,11.77
2023-03-03T11:12:37.229Z,11.75
2023-03-03T11:13:37.244Z,11.65
2023-03-03T11:14:37.303Z,11.57
2023-03-03T11:15:37.254Z,11.57
2023-03-03T11:16:37.233Z,11.51
2023-03-03T11:17:37.218Z,11.48
2023-03-03T11:18:37.169Z,11.44
2023-03-03T11:19:37.159Z,11.35
2023-03-03T11:20:37.716Z,11.25
2023-03-03T11:21:37.207Z,11.19
2023-03-03T11:22:37.490Z,11.23
2023-03-03T11:23:37.144Z,11.22
2023-03-03T11:24:37.106Z,11.10
2023-03-03T11:25:37.085Z,11.11
2023-03-03T11:26:37.099Z,11.05
2023-03-03T11:27:37.122Z,11.05
2023-03-03T11:28:37.062Z,10.99
2023-03-03T11:29:37.049Z,10.97
2023-03-03T11:30:37.099Z,10.99
2023-03-03T11:31:37.026Z,11.02
2023-03-03T11:32:37.023Z,10.97
2023-03-03T11:33:37.101Z,10.86
2023-03-03T11:34:36.994Z,10.96
2023-03-03T11:35:37.829Z,10.96
2023-03-03T11:36:37.728Z,10.94
2023-03-03T11:37:37.801Z,10.97
2023-03-03T11:38:37.004Z,10.89
2023-03-03T11:39:38.313Z,10.90
2023-03-03T11:40:40.667Z,10.81
2023-03-03T11:41:37.681Z,10.79
2023-03-03T11:42:40.729Z,10.82
2023-03-03T11:43:37.848Z,10.76
2023-03-03T11:44:37.000Z,10.74
2023-03-03T11:45:39.745Z,10.60
2023-03-03T11:46:39.779Z,10.53
2023-03-03T11:47:43.742Z,10.48
2023-03-03T11:48:36.832Z,10.44
2023-03-03T11:49:36.950Z,10.41
2023-03-03T11:50:36.816Z,10.49
2023-03-03T11:51:37.028Z,10.41
2023-03-03T11:52:36.798Z,10.44
2023-03-03T11:53:36.778Z,10.46
2023-03-03T11:54:36.802Z,10.41
2023-03-03T11:55:36.813Z,10.44
2023-03-03T11:56:36.737Z,10.44
2023-03-03T11:57:36.886Z,10.42
2023-03-03T11:58:36.787Z,10.54
2023-03-03T11:59:36.755Z,10.51
2023-03-03T12:00:36.696Z,10.56
2023-03-03T12:01:36.708Z,10.57
2023-03-03T12:02:36.713Z,10.60
2023-03-03T12:03:36.717Z,10.67
2023-03-03T12:04:36.653Z,10.75
2023-03-03T12:05:37.029Z,10.78
2023-03-03T12:06:39.379Z,10.81
2023-03-03T12:07:36.607Z,10.87
2023-03-03T12:08:36.638Z,10.87
2023-03-03T12:09:36.651Z,10.93
2023-03-03T12:10:36.709Z,10.96
2023-03-03T12:11:36.598Z,10.84
2023-03-03T12:12:36.728Z,11.02
2023-03-03T12:13:36.570Z,10.99
2023-03-03T12:14:36.540Z,10.97
2023-03-03T12:15:36.747Z,11.04
2023-03-03T12:16:36.527Z,11.12
2023-03-03T12:17:36.506Z,11.04
2023-03-03T12:18:36.495Z,11.00
2023-03-03T12:19:36.481Z,11.07
2023-03-03T12:20:36.469Z,11.08
2023-03-03T12:21:36.545Z,11.08
2023-03-03T12:22:36.485Z,11.07
2023-03-03T12:23:36.437Z,11.00
2023-03-03T12:24:36.499Z,11.07
2023-03-03T12:25:36.471Z,11.05
2023-03-03T12:26:36.398Z,11.12
2023-03-03T12:27:36.600Z,11.18
2023-03-03T12:28:36.384Z,11.22
2023-03-03T12:29:36.367Z,11.27
2023-03-03T12:30:36.423Z,11.33
2023-03-03T12:31:36.467Z,11.44
2023-03-03T12:32:36.384Z,11.48
2023-03-03T12:33:36.516Z,11.44
2023-03-03T12:34:36.409Z,11.63
2023-03-03T12:35:36.472Z,11.51
2023-03-03T12:36:36.294Z,11.68
2023-03-03T12:37:36.307Z,11.63
2023-03-03T12:38:36.281Z,11.80
2023-03-03T12:39:36.384Z,11.77
2023-03-03T12:40:36.346Z,11.84
2023-03-03T12:41:36.238Z,11.81
2023-03-03T12:42:36.243Z,11.83
2023-03-03T12:43:36.314Z,11.88
2023-03-03T12:44:36.268Z,11.87
2023-03-03T12:45:36.271Z,11.83
2023-03-03T12:46:36.229Z,11.88
2023-03-03T12:47:36.181Z,11.90
2023-03-03T12:48:36.293Z,11.94
2023-03-03T12:49:42.781Z,11.88
2023-03-03T12:50:37.280Z,11.88
2023-03-03T12:51:36.122Z,11.86
2023-03-03T12:52:36.128Z,11.88
2023-03-03T12:53:36.127Z,11.78
2023-03-03T12:54:37.398Z,11.83
2023-03-03T12:55:36.083Z,11.66
2023-03-03T12:56:36.204Z,11.51
2023-03-03T12:57:36.058Z,11.62
2023-03-03T12:58:36.045Z,11.45
2023-03-03T12:59:36.114Z,11.45
2023-03-03T13:00:36.092Z,11.37
2023-03-03T13:01:36.021Z,11.33
2023-03-03T13:02:36.125Z,11.35
2023-03-03T13:03:43.645Z,11.33
2023-03-03T13:04:37.007Z,11.25
2023-03-03T13:05:35.967Z,11.10
2023-03-03T13:06:35.959Z,11.10
2023-03-03T13:07:36.107Z,11.02
2023-03-03T13:08:35.964Z,10.90
2023-03-03T13:09:35.956Z,10.81
2023-03-03T13:10:35.911Z,10.64